Time;durP1;ratioP1;P1;durP2;ratioP2;P2;SDS_P1;SDS_P2;PMS_P1;PMS_P2;Temp;Humidity;BMP_temperature;BMP_pressure;BME280_temperature;BME280_humidity;BME280_pressure;Samples;Min_cycle;Max_cycle;Signal;HPM_P1;HPM_P2
2024/01/21 00:02:01;;;;;;;8.27;4.67;;;0.50;99.90;;;;;;5034318;28;20212;-78
2024/01/21 00:04:28;;;;;;;8.77;4.30;;;0.50;99.90;;;;;;5041414;28;20225;-78
2024/01/21 00:06:56;;;;;;;9.53;4.00;;;0.50;99.90;;;;;;5041518;28;20226;-77
2024/01/21 00:09:23;;;;;;;9.23;4.30;;;0.50;99.90;;;;;;5028130;28;20207;-78
2024/01/21 00:11:49;;;;;;;11.17;4.27;;;0.50;99.90;;;;;;5041222;28;20206;-78
2024/01/21 00:14:16;;;;;;;9.17;4.50;;;0.50;99.90;;;;;;5042271;28;20223;-78
2024/01/21 00:16:43;;;;;;;10.00;4.47;;;0.50;99.90;;;;;;5031840;28;20559;-77
2024/01/21 00:19:10;;;;;;;10.20;4.10;;;0.50;99.90;;;;;;5030083;28;20200;-79
2024/01/21 00:21:36;;;;;;;9.03;4.50;;;0.40;99.90;;;;;;5037721;28;20564;-76
2024/01/21 00:24:05;;;;;;;10.83;4.60;;;0.50;99.90;;;;;;5037095;28;20584;-76
2024/01/21 00:26:32;;;;;;;8.63;4.10;;;0.40;99.90;;;;;;5038329;28;20223;-78
2024/01/21 00:29:00;;;;;;;10.70;4.87;;;0.40;99.90;;;;;;5036801;28;20229;-78
2024/01/21 00:31:27;;;;;;;7.73;4.53;;;0.40;99.90;;;;;;5030192;28;20214;-77
2024/01/21 00:33:54;;;;;;;8.50;4.10;;;0.40;99.90;;;;;;5034738;28;20219;-78
2024/01/21 00:36:21;;;;;;;9.53;4.47;;;0.30;99.90;;;;;;5037287;28;20226;-78
2024/01/21 00:38:47;;;;;;;10.97;4.87;;;0.40;99.90;;;;;;5037256;28;20658;-77
2024/01/21 00:41:16;;;;;;;8.63;4.13;;;0.30;99.90;;;;;;5034397;28;20650;-76
2024/01/21 00:43:43;;;;;;;7.93;3.97;;;0.40;99.90;;;;;;5035645;28;20205;-78
2024/01/21 00:46:10;;;;;;;7.23;3.77;;;0.40;99.90;;;;;;5035069;28;20241;-78
2024/01/21 00:48:37;;;;;;;7.47;4.07;;;-0.20;99.90;;;;;;5033901;28;20584;-78
2024/01/21 00:51:04;;;;;;;7.67;4.20;;;0.40;99.90;;;;;;5032965;28;20294;-78
2024/01/21 00:53:30;;;;;;;9.17;4.33;;;0.30;99.90;;;;;;5034438;28;20223;-78
2024/01/21 00:55:57;;;;;;;9.00;4.17;;;0.30;99.90;;;;;;5034373;28;20223;-78
2024/01/21 00:58:25;;;;;;;7.67;4.03;;;0.30;99.90;;;;;;5033900;28;20203;-78
2024/01/21 01:00:52;;;;;;;9.53;3.97;;;0.20;99.90;;;;;;5032863;28;20722;-77
2024/01/21 01:03:19;;;;;;;8.47;3.47;;;0.20;99.90;;;;;;5039612;28;20196;-77
2024/01/21 01:05:46;;;;;;;6.57;3.83;;;0.30;99.90;;;;;;5034166;28;20220;-78
2024/01/21 01:08:12;;;;;;;8.47;3.70;;;0.30;99.90;;;;;;5032695;28;20787;-77
2024/01/21 01:10:39;;;;;;;7.87;3.90;;;0.40;99.90;;;;;;5037970;28;20203;-77
2024/01/21 01:13:06;;;;;;;9.67;4.23;;;0.40;99.90;;;;;;5034567;28;20215;-78
2024/01/21 01:15:34;;;;;;;8.50;3.83;;;0.50;99.90;;;;;;5041054;28;20227;-77
2024/01/21 01:18:01;;;;;;;6.73;3.60;;;0.50;86.40;;;;;;5039674;28;20218;-77
2024/01/21 01:20:28;;;;;;;6.20;3.53;;;0.70;58.50;;;;;;5036350;28;20307;-78
2024/01/21 01:22:54;;;;;;;6.37;3.20;;;0.60;42.00;;;;;;5042287;28;20199;-77
2024/01/21 01:25:21;;;;;;;5.40;3.00;;;0.50;43.90;;;;;;5034215;28;20226;-77
2024/01/21 01:27:48;;;;;;;7.50;3.50;;;0.50;49.20;;;;;;5033997;28;20200;-78
2024/01/21 01:30:15;;;;;;;4.83;2.70;;;0.40;45.30;;;;;;5036908;28;20200;-78
2024/01/21 01:32:43;;;;;;;7.93;3.63;;;0.60;18.20;;;;;;5042723;28;20200;-78
2024/01/21 01:35:10;;;;;;;6.93;3.40;;;0.60;6.60;;;;;;5039443;28;20234;-77
2024/01/21 01:37:36;;;;;;;6.17;3.13;;;0.70;1.00;;;;;;5039569;28;20230;-77
2024/01/21 01:40:06;;;;;;;8.30;3.37;;;0.70;1.00;;;;;;5036557;28;20269;-77
2024/01/21 01:42:33;;;;;;;5.17;2.80;;;0.60;1.00;;;;;;5032185;28;20206;-77
2024/01/21 01:45:00;;;;;;;6.00;2.73;;;0.60;1.00;;;;;;5033993;28;20226;-77
2024/01/21 01:47:27;;;;;;;8.40;3.40;;;0.60;1.00;;;;;;5035747;28;20200;-77
2024/01/21 01:49:58;;;;;;;5.87;3.33;;;0.70;1.00;;;;;;5035416;28;20207;-77
2024/01/21 01:52:25;;;;;;;6.53;3.20;;;1.00;1.00;;;;;;5035581;28;20222;-77
2024/01/21 01:54:52;;;;;;;6.70;3.90;;;0.70;1.00;;;;;;5036749;28;20631;-77
2024/01/21 01:57:20;;;;;;;5.03;2.73;;;0.70;1.00;;;;;;5034424;28;20200;-77
2024/01/21 01:59:46;;;;;;;4.17;2.43;;;0.80;1.00;;;;;;5030843;28;20206;-77
2024/01/21 02:02:14;;;;;;;4.27;2.87;;;0.70;1.00;;;;;;5038748;28;20203;-77
2024/01/21 02:04:41;;;;;;;5.73;3.10;;;0.70;1.00;;;;;;5034475;28;20220;-78
2024/01/21 02:07:09;;;;;;;4.57;2.97;;;0.70;1.00;;;;;;5041297;28;20208;-77
2024/01/21 02:09:36;;;;;;;4.43;2.70;;;0.90;1.00;;;;;;5037619;28;20567;-77
2024/01/21 02:12:03;;;;;;;10.37;3.33;;;0.90;1.00;;;;;;5036102;28;20670;-77
2024/01/21 02:14:30;;;;;;;6.73;2.73;;;0.80;1.00;;;;;;5036096;28;20223;-77
2024/01/21 02:16:57;;;;;;;5.50;2.97;;;0.80;1.00;;;;;;5039398;28;20207;-77
2024/01/21 02:19:27;;;;;;;5.23;2.47;;;0.80;1.00;;;;;;5038059;28;20215;-78
2024/01/21 02:21:54;;;;;;;4.47;2.83;;;0.70;1.00;;;;;;5037650;28;20577;-77
2024/01/21 02:24:30;;;;;;;6.23;3.13;;;0.60;1.00;;;;;;5042649;28;20751;-77
2024/01/21 02:26:57;;;;;;;4.23;2.73;;;0.60;1.00;;;;;;5039172;28;20206;-77
2024/01/21 02:29:24;;;;;;;4.73;2.97;;;0.50;1.00;;;;;;5035211;28;20575;-77
2024/01/21 02:31:52;;;;;;;6.90;3.30;;;0.40;1.00;;;;;;5036788;28;20206;-77
2024/01/21 02:34:19;;;;;;;6.17;3.63;;;0.30;1.00;;;;;;5035691;28;20219;-77
2024/01/21 02:36:46;;;;;;;5.23;3.07;;;0.20;1.00;;;;;;5037927;28;20285;-77
2024/01/21 02:39:12;;;;;;;5.03;3.10;;;0.20;1.00;;;;;;5035527;28;20211;-77
2024/01/21 02:41:41;;;;;;;5.13;3.13;;;0.20;1.00;;;;;;5033881;28;20579;-77
2024/01/21 02:44:07;;;;;;;5.93;3.33;;;0.10;1.00;;;;;;5033254;28;20658;-77
2024/01/21 02:46:34;;;;;;;5.93;3.40;;;0.00;1.00;;;;;;5032289;28;20690;-77
2024/01/21 02:49:01;;;;;;;7.43;3.70;;;0.00;1.00;;;;;;5033458;28;20222;-77
2024/01/21 02:51:28;;;;;;;6.07;3.33;;;0.10;1.00;;;;;;5033630;28;20200;-77
2024/01/21 02:53:54;;;;;;;8.23;3.43;;;0.10;1.00;;;;;;5034353;28;20227;-77
2024/01/21 02:56:22;;;;;;;7.70;3.40;;;0.10;1.00;;;;;;5030092;28;20690;-77
2024/01/21 02:58:50;;;;;;;6.17;3.47;;;0.20;1.00;;;;;;5033043;28;20612;-77
2024/01/21 03:01:17;;;;;;;7.37;3.60;;;0.10;1.00;;;;;;5031751;28;20208;-77
2024/01/21 03:03:44;;;;;;;8.07;3.60;;;0.10;1.00;;;;;;5032684;28;20597;-77
2024/01/21 03:06:11;;;;;;;7.03;3.20;;;0.20;1.00;;;;;;5032393;28;20741;-77
2024/01/21 03:08:38;;;;;;;5.33;3.23;;;0.20;1.00;;;;;;5034342;28;20214;-77
2024/01/21 03:11:05;;;;;;;8.13;3.73;;;0.20;1.00;;;;;;5039540;28;20210;-77
2024/01/21 03:13:31;;;;;;;6.73;3.80;;;0.40;1.00;;;;;;5033056;28;20698;-77
2024/01/21 03:16:01;;;;;;;6.83;3.50;;;0.40;1.00;;;;;;5036863;28;20234;-77
2024/01/21 03:18:28;;;;;;;5.60;3.23;;;0.40;1.00;;;;;;5036525;28;20676;-78
2024/01/21 03:20:54;;;;;;;7.63;3.50;;;0.40;1.00;;;;;;5038431;28;20204;-77
2024/01/21 03:23:21;;;;;;;7.60;3.40;;;0.40;1.00;;;;;;5032792;28;20207;-77
2024/01/21 03:25:48;;;;;;;5.77;3.10;;;0.40;1.00;;;;;;5039520;28;20222;-77
2024/01/21 03:28:14;;;;;;;6.20;3.37;;;0.40;1.00;;;;;;5032456;28;20214;-77
2024/01/21 03:30:42;;;;;;;7.27;3.20;;;0.50;1.00;;;;;;5037172;28;20199;-77
2024/01/21 03:33:10;;;;;;;7.60;3.70;;;0.50;1.00;;;;;;5032536;28;20204;-77
2024/01/21 03:35:36;;;;;;;7.37;3.33;;;0.60;1.00;;;;;;5035841;28;20223;-77
2024/01/21 03:38:03;;;;;;;8.57;3.50;;;0.60;1.00;;;;;;5035165;28;20212;-77
2024/01/21 03:40:30;;;;;;;4.90;2.87;;;0.70;1.00;;;;;;5034974;28;20199;-77
2024/01/21 03:42:57;;;;;;;5.57;3.27;;;0.70;1.00;;;;;;5033566;28;20577;-76
2024/01/21 03:45:23;;;;;;;6.27;3.30;;;0.80;1.00;;;;;;5033021;28;20215;-77
2024/01/21 03:47:50;;;;;;;6.93;3.23;;;0.90;1.00;;;;;;5033267;28;20211;-77
2024/01/21 03:50:20;;;;;;;5.77;3.60;;;0.90;1.00;;;;;;5033060;28;20294;-77
2024/01/21 03:52:47;;;;;;;5.73;3.10;;;1.00;1.00;;;;;;5030664;28;20204;-77
2024/01/21 03:55:15;;;;;;;4.77;3.00;;;0.90;1.00;;;;;;5033858;28;20237;-77
2024/01/21 03:57:41;;;;;;;4.67;3.30;;;0.80;1.00;;;;;;5032183;28;20199;-77
2024/01/21 04:00:09;;;;;;;5.57;3.37;;;0.80;1.00;;;;;;5032611;28;20580;-77
2024/01/21 04:02:36;;;;;;;6.87;3.23;;;0.80;1.00;;;;;;5032257;28;20610;-77
2024/01/21 04:05:04;;;;;;;5.83;3.53;;;0.90;1.00;;;;;;5031438;28;20227;-77
2024/01/21 04:07:32;;;;;;;10.03;5.33;;;0.70;1.00;;;;;;5031877;28;20565;-77
2024/01/21 04:09:59;;;;;;;5.90;3.43;;;0.70;1.00;;;;;;5029828;28;20206;-77
2024/01/21 04:12:26;;;;;;;6.53;3.50;;;0.60;1.00;;;;;;5034483;28;20196;-77
2024/01/21 04:14:53;;;;;;;5.83;3.60;;;0.60;1.00;;;;;;5036931;28;20597;-77
2024/01/21 04:17:22;;;;;;;6.53;3.47;;;0.60;1.00;;;;;;5041946;28;20220;-77
2024/01/21 04:19:49;;;;;;;7.03;3.33;;;0.70;1.00;;;;;;5039097;28;20209;-78
2024/01/21 04:22:18;;;;;;;8.13;3.50;;;0.70;1.00;;;;;;5031673;28;20206;-77
2024/01/21 04:24:46;;;;;;;5.17;3.20;;;0.70;1.00;;;;;;5035922;28;20782;-78
2024/01/21 04:27:13;;;;;;;5.50;3.40;;;0.70;1.00;;;;;;5037916;28;20204;-77
2024/01/21 04:29:40;;;;;;;8.13;3.50;;;0.60;1.00;;;;;;5040552;28;20202;-77
2024/01/21 04:32:07;;;;;;;5.80;3.43;;;0.60;1.00;;;;;;5036000;28;20574;-78
2024/01/21 04:34:34;;;;;;;5.60;3.60;;;0.70;1.00;;;;;;5032064;28;20231;-77
2024/01/21 04:37:01;;;;;;;5.20;3.10;;;0.70;1.00;;;;;;5034005;28;20215;-77
2024/01/21 04:39:28;;;;;;;6.20;3.30;;;0.60;1.00;;;;;;5030475;28;20200;-77
2024/01/21 04:41:56;;;;;;;5.90;3.20;;;0.60;1.00;;;;;;5030679;28;20209;-80
2024/01/21 04:44:23;;;;;;;6.37;3.37;;;0.60;1.00;;;;;;5030579;28;20206;-77
2024/01/21 04:46:50;;;;;;;7.60;3.20;;;0.70;1.00;;;;;;5032277;28;20669;-77
2024/01/21 04:49:16;;;;;;;6.73;3.47;;;0.80;1.00;;;;;;5031075;28;20560;-77
2024/01/21 04:51:43;;;;;;;6.40;3.50;;;0.80;1.00;;;;;;5030615;28;20199;-77
2024/01/21 04:54:10;;;;;;;5.73;3.33;;;0.80;1.00;;;;;;5030386;28;20246;-77
2024/01/21 04:56:37;;;;;;;5.97;3.37;;;0.70;1.00;;;;;;5033552;28;20218;-77
2024/01/21 04:59:05;;;;;;;10.23;5.23;;;0.60;1.00;;;;;;5033166;28;20315;-77
2024/01/21 05:01:33;;;;;;;6.37;3.60;;;0.60;1.00;;;;;;5032659;28;20199;-77
2024/01/21 05:04:00;;;;;;;6.60;3.93;;;0.70;1.00;;;;;;5031401;28;20229;-77
2024/01/21 05:06:27;;;;;;;6.57;3.60;;;0.60;1.00;;;;;;5024022;28;20220;-77
2024/01/21 05:08:54;;;;;;;9.03;4.10;;;0.90;1.00;;;;;;5028605;28;20200;-76
2024/01/21 05:11:20;;;;;;;8.37;3.70;;;0.90;1.00;;;;;;5028291;28;20616;-77
2024/01/21 05:13:47;;;;;;;6.87;4.07;;;0.80;1.00;;;;;;5031447;28;20202;-77
2024/01/21 05:16:16;;;;;;;6.73;3.40;;;0.90;1.00;;;;;;5031110;28;20231;-77
2024/01/21 05:18:43;;;;;;;8.33;3.60;;;0.90;1.00;;;;;;5029087;28;20234;-77
2024/01/21 05:21:10;;;;;;;8.17;3.60;;;1.10;1.00;;;;;;5030400;28;20206;-77
2024/01/21 05:23:37;;;;;;;6.83;3.60;;;1.20;1.00;;;;;;5037054;28;20665;-77
2024/01/21 05:26:04;;;;;;;6.33;3.57;;;1.20;1.00;;;;;;5033341;28;20231;-77
2024/01/21 05:28:31;;;;;;;7.07;3.70;;;1.10;1.00;;;;;;5040338;28;20775;-77
2024/01/21 05:30:57;;;;;;;8.23;4.30;;;1.10;1.00;;;;;;5033451;28;20208;-77
2024/01/21 05:33:26;;;;;;;6.80;3.80;;;1.10;1.00;;;;;;5034435;28;20214;-77
2024/01/21 05:35:52;;;;;;;8.03;4.10;;;1.20;1.00;;;;;;5033847;28;20238;-77
2024/01/21 05:38:19;;;;;;;9.30;3.97;;;1.20;1.00;;;;;;5032912;28;20211;-77
2024/01/21 05:40:46;;;;;;;6.40;3.43;;;1.20;1.00;;;;;;5034754;28;20207;-77
2024/01/21 05:43:13;;;;;;;7.00;3.73;;;1.50;1.00;;;;;;5032245;28;20215;-77
2024/01/21 05:45:40;;;;;;;6.30;3.70;;;1.50;1.00;;;;;;5034297;28;20212;-77
2024/01/21 05:48:08;;;;;;;8.33;3.80;;;1.50;1.00;;;;;;5032238;28;20736;-77
2024/01/21 05:50:36;;;;;;;7.07;3.60;;;1.40;1.00;;;;;;5031276;28;20226;-77
2024/01/21 05:53:05;;;;;;;6.93;3.60;;;1.40;1.00;;;;;;5031931;28;20207;-77
2024/01/21 05:55:32;;;;;;;4.93;3.03;;;1.60;1.00;;;;;;5034398;28;20224;-77
2024/01/21 05:57:59;;;;;;;8.13;3.50;;;1.70;1.00;;;;;;5036281;28;20729;-77
2024/01/21 06:00:25;;;;;;;8.53;3.60;;;1.80;1.00;;;;;;5033663;28;20211;-78
2024/01/21 06:02:54;;;;;;;6.53;3.47;;;1.90;1.00;;;;;;5033492;28;20208;-78
2024/01/21 06:05:22;;;;;;;7.87;3.60;;;1.80;1.00;;;;;;5034362;28;20219;-78
2024/01/21 06:07:50;;;;;;;7.40;3.57;;;1.90;1.00;;;;;;5024274;28;20208;-77
2024/01/21 06:10:17;;;;;;;5.77;3.00;;;1.80;1.00;;;;;;5031105;28;20234;-77
2024/01/21 06:12:47;;;;;;;6.63;3.80;;;1.80;1.00;;;;;;5031812;28;20196;-77
2024/01/21 06:15:14;;;;;;;7.27;3.87;;;1.80;1.00;;;;;;5030082;28;20617;-77
2024/01/21 06:17:41;;;;;;;7.73;3.30;;;1.80;1.00;;;;;;5030187;28;20293;-77
2024/01/21 06:20:09;;;;;;;6.73;3.70;;;1.80;1.00;;;;;;5036994;28;20207;-77
2024/01/21 06:22:37;;;;;;;7.07;3.80;;;1.80;1.00;;;;;;5031266;28;20260;-77
2024/01/21 06:25:06;;;;;;;9.03;4.90;;;1.80;1.00;;;;;;5032573;28;20231;-77
2024/01/21 06:27:32;;;;;;;8.43;4.13;;;1.70;1.00;;;;;;5038199;28;20229;-77
2024/01/21 06:30:11;;;;;;;7.60;3.70;;;1.70;1.00;;;;;;5033991;28;20198;-77
2024/01/21 06:32:38;;;;;;;8.30;3.93;;;1.60;1.00;;;;;;5030514;28;20652;-77
2024/01/21 06:35:05;;;;;;;8.77;4.20;;;1.60;1.00;;;;;;5033712;28;20716;-77
2024/01/21 06:37:32;;;;;;;6.60;3.80;;;1.60;1.00;;;;;;5035069;28;20210;-77
2024/01/21 06:39:59;;;;;;;8.07;4.03;;;1.60;1.00;;;;;;5029913;28;20203;-77
2024/01/21 06:42:29;;;;;;;7.40;3.83;;;1.80;1.00;;;;;;5030137;28;20215;-77
2024/01/21 06:44:56;;;;;;;6.67;3.83;;;1.80;1.00;;;;;;5031099;28;20503;-77
2024/01/21 06:47:22;;;;;;;6.53;3.27;;;1.80;1.00;;;;;;5033589;28;20207;-78
2024/01/21 06:49:49;;;;;;;7.73;4.10;;;1.90;1.00;;;;;;5032697;28;20658;-78
2024/01/21 06:52:16;;;;;;;6.47;4.00;;;1.80;1.00;;;;;;5027910;28;20579;-77
2024/01/21 06:54:43;;;;;;;7.97;4.40;;;1.80;1.00;;;;;;5034135;28;20670;-78
2024/01/21 06:57:10;;;;;;;7.27;3.60;;;1.80;1.00;;;;;;5034824;28;20226;-77
2024/01/21 06:59:38;;;;;;;6.63;3.80;;;1.70;1.00;;;;;;5030337;28;20219;-77
2024/01/21 07:02:05;;;;;;;7.17;3.77;;;1.70;1.00;;;;;;5033975;28;20211;-77
2024/01/21 07:04:32;;;;;;;6.90;3.77;;;1.70;1.00;;;;;;5028192;28;20228;-77
2024/01/21 07:06:59;;;;;;;9.30;3.93;;;1.70;1.00;;;;;;5033088;28;20204;-77
2024/01/21 07:09:27;;;;;;;7.07;3.80;;;1.80;1.00;;;;;;5030602;28;20559;-77
2024/01/21 07:11:54;;;;;;;8.37;4.53;;;1.80;1.00;;;;;;5031267;28;20294;-77
2024/01/21 07:14:21;;;;;;;8.83;4.03;;;1.80;1.00;;;;;;5031237;28;20654;-77
2024/01/21 07:16:49;;;;;;;8.27;4.73;;;1.60;1.00;;;;;;5029908;28;20732;-77
2024/01/21 07:19:16;;;;;;;7.47;4.00;;;1.70;1.00;;;;;;5026563;28;20207;-76
2024/01/21 07:21:43;;;;;;;7.93;3.80;;;1.70;1.00;;;;;;5030452;28;20290;-78
2024/01/21 07:24:10;;;;;;;8.10;3.73;;;1.80;1.00;;;;;;5026674;28;20213;-77
2024/01/21 07:26:36;;;;;;;7.10;3.87;;;1.70;1.00;;;;;;5035944;28;20745;-77
2024/01/21 07:29:03;;;;;;;6.60;3.83;;;1.80;1.00;;;;;;5030557;28;20303;-77
2024/01/21 07:31:30;;;;;;;11.03;4.03;;;2.40;1.00;;;;;;5034464;28;20200;-77
2024/01/21 07:33:58;;;;;;;6.83;3.87;;;1.90;1.00;;;;;;5032465;28;20871;-77
2024/01/21 07:36:25;;;;;;;6.60;3.80;;;1.80;1.00;;;;;;5032069;28;20723;-76
2024/01/21 07:38:52;;;;;;;7.37;3.87;;;1.80;1.00;;;;;;5029594;28;20298;-78
2024/01/21 07:41:19;;;;;;;5.57;3.50;;;1.90;1.00;;;;;;5032919;28;20203;-77
2024/01/21 07:43:45;;;;;;;10.67;3.80;;;1.80;1.00;;;;;;5031618;28;20208;-76
2024/01/21 07:46:13;;;;;;;8.40;4.30;;;1.90;1.00;;;;;;5030358;28;20253;-77
2024/01/21 07:48:39;;;;;;;6.13;3.30;;;2.00;1.00;;;;;;5030384;28;20200;-78
2024/01/21 07:51:07;;;;;;;6.93;3.90;;;2.00;1.00;;;;;;5029090;28;20207;-77
2024/01/21 07:53:34;;;;;;;9.03;4.10;;;2.00;1.00;;;;;;5026654;28;20208;-77
2024/01/21 07:56:01;;;;;;;5.53;3.23;;;2.00;1.00;;;;;;5033410;28;20245;-77
2024/01/21 07:58:28;;;;;;;8.50;4.20;;;2.10;1.00;;;;;;5034465;28;20200;-78
2024/01/21 08:00:55;;;;;;;8.03;4.03;;;2.10;1.00;;;;;;5034981;28;20203;-78
2024/01/21 08:03:21;;;;;;;5.20;3.20;;;2.20;1.00;;;;;;5033906;28;20210;-77
2024/01/21 08:05:48;;;;;;;8.03;3.67;;;2.30;1.00;;;;;;5032673;28;20215;-77
2024/01/21 08:08:16;;;;;;;5.80;3.40;;;2.10;1.00;;;;;;5031731;28;20215;-77
2024/01/21 08:10:43;;;;;;;7.73;3.47;;;2.20;1.00;;;;;;5031588;28;20210;-77
2024/01/21 08:13:10;;;;;;;5.27;3.30;;;2.20;1.00;;;;;;5031108;28;20351;-77
2024/01/21 08:15:37;;;;;;;6.77;3.27;;;2.20;1.00;;;;;;5027009;28;20246;-78
2024/01/21 08:18:05;;;;;;;6.50;3.10;;;2.10;1.00;;;;;;5028290;28;20238;-77
2024/01/21 08:20:32;;;;;;;7.07;3.80;;;2.20;1.00;;;;;;5022655;28;20204;-77
2024/01/21 08:22:59;;;;;;;8.47;3.80;;;2.20;1.00;;;;;;5033135;28;20209;-78
2024/01/21 08:25:27;;;;;;;6.93;3.67;;;2.20;1.00;;;;;;5034826;28;20222;-79
2024/01/21 08:27:53;;;;;;;6.67;3.40;;;2.20;1.00;;;;;;5034239;28;20646;-77
2024/01/21 08:30:20;;;;;;;3.97;2.47;;;2.30;1.00;;;;;;5032890;28;20218;-77
2024/01/21 08:32:47;;;;;;;6.10;3.70;;;2.30;1.00;;;;;;5034412;28;20732;-77
2024/01/21 08:35:14;;;;;;;4.53;3.10;;;2.30;1.00;;;;;;5030052;28;20234;-77
2024/01/21 08:37:41;;;;;;;5.83;2.90;;;2.40;1.00;;;;;;5047329;28;20208;-78
2024/01/21 08:40:09;;;;;;;8.80;3.70;;;2.40;1.00;;;;;;5039387;28;20733;-79
2024/01/21 08:42:37;;;;;;;7.23;3.63;;;2.30;1.00;;;;;;5039599;28;20207;-79
2024/01/21 08:45:05;;;;;;;5.53;3.60;;;2.40;1.00;;;;;;5039333;28;20227;-78
2024/01/21 08:47:32;;;;;;;6.33;3.03;;;2.50;1.00;;;;;;5038639;28;20208;-78
2024/01/21 08:49:59;;;;;;;7.10;3.27;;;2.40;1.00;;;;;;5037295;28;20213;-78
2024/01/21 08:52:26;;;;;;;6.10;3.20;;;2.40;1.00;;;;;;5039673;28;20301;-79
2024/01/21 08:54:53;;;;;;;5.93;3.23;;;2.40;1.00;;;;;;5042027;28;20231;-79
2024/01/21 08:57:21;;;;;;;6.03;3.40;;;2.50;1.00;;;;;;5047718;28;20234;-79
2024/01/21 08:59:51;;;;;;;5.23;3.20;;;2.50;1.00;;;;;;5045636;28;20217;-78
2024/01/21 09:02:18;;;;;;;4.63;2.60;;;2.50;1.00;;;;;;5042046;28;20294;-78
2024/01/21 09:04:45;;;;;;;5.80;2.77;;;2.50;1.00;;;;;;5050820;28;20572;-80
2024/01/21 09:07:12;;;;;;;5.67;3.30;;;2.50;1.00;;;;;;5037657;28;20211;-79
2024/01/21 09:09:38;;;;;;;5.33;3.40;;;2.60;1.00;;;;;;5049525;28;20204;-78
2024/01/21 09:12:07;;;;;;;6.83;3.20;;;2.60;1.00;;;;;;5044733;28;20203;-79
2024/01/21 09:14:34;;;;;;;4.40;2.90;;;2.70;1.00;;;;;;5038432;28;20319;-79
2024/01/21 09:17:02;;;;;;;4.57;2.57;;;2.70;1.00;;;;;;5037415;28;20592;-80
2024/01/21 09:19:29;;;;;;;10.13;3.87;;;2.60;1.00;;;;;;5043231;28;20229;-79
2024/01/21 09:21:56;;;;;;;5.43;2.97;;;2.70;1.00;;;;;;5044437;28;20194;-78
2024/01/21 09:24:22;;;;;;;6.87;3.30;;;2.60;1.00;;;;;;5038852;28;20210;-79
2024/01/21 09:26:49;;;;;;;3.83;2.27;;;2.70;1.00;;;;;;5043910;28;20229;-78
2024/01/21 09:29:16;;;;;;;7.87;3.30;;;2.70;1.00;;;;;;5046983;28;20234;-80
2024/01/21 09:31:43;;;;;;;6.00;2.90;;;2.70;1.00;;;;;;5044550;28;20290;-78
2024/01/21 09:34:11;;;;;;;6.07;3.17;;;2.80;1.00;;;;;;5038336;28;20670;-78
2024/01/21 09:36:38;;;;;;;3.93;2.80;;;2.80;1.00;;;;;;5046781;28;20219;-79
2024/01/21 09:39:05;;;;;;;5.93;3.37;;;2.80;1.00;;;;;;5043671;28;20509;-79
2024/01/21 09:41:38;;;;;;;10.30;3.90;;;2.80;1.00;;;;;;5040412;28;20212;-80
2024/01/21 09:44:05;;;;;;;8.13;3.30;;;2.90;1.00;;;;;;5043179;28;20207;-80
2024/01/21 09:46:34;;;;;;;5.27;3.27;;;2.90;1.00;;;;;;5040917;28;20214;-80
2024/01/21 09:49:01;;;;;;;6.30;3.47;;;2.80;1.00;;;;;;5041425;28;20207;-79
2024/01/21 09:51:31;;;;;;;8.63;4.70;;;2.80;1.00;;;;;;5035820;28;20243;-78
2024/01/21 09:53:58;;;;;;;7.00;3.53;;;2.80;1.00;;;;;;5036398;28;20211;-79
2024/01/21 09:56:24;;;;;;;5.30;3.40;;;2.80;1.00;;;;;;5041837;28;20751;-79
2024/01/21 09:58:53;;;;;;;9.50;3.50;;;2.80;1.00;;;;;;5043037;28;20250;-79
2024/01/21 10:01:21;;;;;;;6.50;3.40;;;2.90;1.00;;;;;;5031961;28;20212;-79
2024/01/21 10:03:49;;;;;;;6.03;3.27;;;3.00;1.00;;;;;;5045510;28;20201;-80
2024/01/21 10:06:16;;;;;;;6.87;3.83;;;3.10;1.00;;;;;;5043339;28;20228;-79
2024/01/21 10:08:45;;;;;;;7.33;3.30;;;3.10;1.00;;;;;;5039724;28;20238;-79
2024/01/21 10:11:12;;;;;;;5.30;3.47;;;3.20;1.00;;;;;;5037749;28;20204;-78
2024/01/21 10:13:39;;;;;;;4.90;3.17;;;3.30;1.00;;;;;;5038906;28;20204;-79
2024/01/21 10:16:06;;;;;;;5.33;3.57;;;3.30;1.00;;;;;;5033337;28;20238;-78
2024/01/21 10:18:34;;;;;;;6.00;3.77;;;3.30;1.00;;;;;;5037641;28;20744;-79
2024/01/21 10:21:04;;;;;;;6.23;3.60;;;3.30;1.00;;;;;;5040883;28;20205;-78
2024/01/21 10:23:31;;;;;;;6.10;3.50;;;3.30;1.00;;;;;;5038288;28;20659;-78
2024/01/21 10:25:59;;;;;;;5.90;3.60;;;3.30;1.00;;;;;;5035144;28;20617;-79
2024/01/21 10:28:26;;;;;;;6.57;3.63;;;3.30;1.00;;;;;;5034079;28;20208;-79
2024/01/21 10:30:53;;;;;;;5.50;3.37;;;3.30;1.00;;;;;;5034952;28;20298;-78
2024/01/21 10:33:20;;;;;;;4.63;3.33;;;3.40;1.00;;;;;;5037209;28;20254;-78
2024/01/21 10:35:49;;;;;;;6.50;4.00;;;3.40;1.00;;;;;;5036302;28;20224;-78
2024/01/21 10:38:15;;;;;;;7.43;3.50;;;3.30;1.00;;;;;;5035371;28;20944;-78
2024/01/21 10:40:45;;;;;;;4.77;3.53;;;3.30;1.00;;;;;;5032584;28;20204;-79
2024/01/21 10:43:16;;;;;;;6.93;3.50;;;3.30;1.00;;;;;;5040733;28;20203;-79
2024/01/21 10:45:46;;;;;;;6.43;3.63;;;3.30;1.00;;;;;;5042082;28;20220;-79
2024/01/21 10:48:14;;;;;;;5.63;4.20;;;3.30;1.00;;;;;;5044551;28;20203;-78
2024/01/21 10:50:42;;;;;;;8.57;4.20;;;3.30;1.00;;;;;;5034560;28;20196;-79
2024/01/21 10:53:11;;;;;;;7.17;3.90;;;3.30;1.00;;;;;;5032933;28;20203;-79
2024/01/21 10:55:40;;;;;;;7.20;3.90;;;3.40;1.00;;;;;;5032605;28;20251;-78
2024/01/21 10:58:06;;;;;;;6.50;4.20;;;3.40;1.00;;;;;;5025245;28;20196;-78
2024/01/21 11:00:35;;;;;;;7.33;3.90;;;3.40;1.00;;;;;;5030895;28;20204;-78
2024/01/21 11:03:24;;;;;;;7.00;4.07;;;3.50;1.00;;;;;;5024766;28;20667;-80
2024/01/21 11:05:53;;;;;;;7.40;3.87;;;3.60;1.00;;;;;;5034607;28;20223;-80
2024/01/21 11:08:23;;;;;;;7.63;4.37;;;3.60;1.00;;;;;;5031764;28;20644;-79
2024/01/21 11:10:53;;;;;;;7.27;4.30;;;3.60;1.00;;;;;;5033498;28;20199;-79
2024/01/21 11:13:41;;;;;;;8.47;4.07;;;3.60;1.00;;;;;;5032576;28;20618;-79
2024/01/21 11:16:11;;;;;;;6.83;3.83;;;3.70;1.00;;;;;;5013471;28;20224;-81
2024/01/21 11:18:38;;;;;;;7.43;4.93;;;3.70;1.00;;;;;;5027118;28;20200;-83
2024/01/21 11:21:05;;;;;;;7.20;3.73;;;3.80;1.00;;;;;;5024973;28;20246;-79
2024/01/21 11:23:34;;;;;;;9.63;4.47;;;3.80;1.00;;;;;;5029345;28;20206;-78
2024/01/21 11:26:01;;;;;;;6.93;3.80;;;3.90;1.00;;;;;;5028778;28;20227;-79
2024/01/21 11:28:29;;;;;;;7.13;3.87;;;4.00;1.00;;;;;;5031186;28;20217;-78
2024/01/21 11:31:03;;;;;;;5.63;3.87;;;4.00;1.00;;;;;;5020887;28;20212;-79
2024/01/21 11:33:31;;;;;;;7.13;3.97;;;3.90;1.00;;;;;;5028973;28;20199;-78
2024/01/21 11:36:00;;;;;;;8.13;4.80;;;4.00;1.00;;;;;;5032331;28;20224;-79
2024/01/21 11:38:29;;;;;;;6.27;4.03;;;3.90;1.00;;;;;;5031503;28;20206;-78
2024/01/21 11:41:03;;;;;;;8.27;4.40;;;4.00;1.00;;;;;;5036680;28;20203;-78
2024/01/21 11:43:31;;;;;;;7.90;4.33;;;4.10;1.00;;;;;;5032138;28;20550;-79
2024/01/21 11:45:58;;;;;;;8.03;3.87;;;4.20;1.00;;;;;;5031549;28;20286;-78
2024/01/21 11:48:30;;;;;;;10.87;5.43;;;4.20;1.00;;;;;;5031098;28;20234;-79
2024/01/21 11:50:58;;;;;;;6.57;4.50;;;4.20;1.00;;;;;;5032963;28;20254;-81
2024/01/21 11:53:25;;;;;;;6.70;4.27;;;4.10;1.00;;;;;;5035480;28;20204;-78
2024/01/21 11:55:52;;;;;;;6.60;3.60;;;4.20;1.00;;;;;;5032800;28;20222;-80
2024/01/21 11:58:19;;;;;;;7.77;4.80;;;4.40;1.00;;;;;;5032195;28;20326;-79
2024/01/21 12:00:46;;;;;;;8.10;4.47;;;4.40;1.00;;;;;;5031103;28;20574;-79
2024/01/21 12:03:13;;;;;;;10.77;5.00;;;4.50;1.00;;;;;;5030747;28;20207;-78
2024/01/21 12:05:42;;;;;;;7.80;4.70;;;4.60;1.00;;;;;;5037978;28;20223;-81
2024/01/21 12:08:10;;;;;;;8.13;4.73;;;5.00;1.00;;;;;;5030894;28;20210;-79
2024/01/21 12:10:39;;;;;;;8.37;4.93;;;4.90;1.00;;;;;;5029889;28;20200;-79
2024/01/21 12:13:08;;;;;;;7.90;4.80;;;5.00;1.00;;;;;;5033756;28;20211;-78
2024/01/21 12:15:36;;;;;;;10.17;5.27;;;4.90;1.00;;;;;;5029861;28;20238;-78
2024/01/21 12:18:05;;;;;;;9.13;4.83;;;5.10;1.00;;;;;;5028324;28;20617;-78
2024/01/21 12:20:32;;;;;;;8.93;5.10;;;4.90;1.00;;;;;;5024715;28;20299;-81
2024/01/21 12:23:01;;;;;;;8.73;4.83;;;5.00;1.00;;;;;;5032390;28;20204;-78
2024/01/21 12:25:30;;;;;;;8.47;4.80;;;4.90;1.00;;;;;;5025741;28;20227;-80
2024/01/21 12:27:58;;;;;;;8.70;5.17;;;4.80;1.00;;;;;;5024471;28;20663;-81
2024/01/21 12:30:26;;;;;;;9.17;4.73;;;4.60;1.00;;;;;;5035272;28;20204;-80
2024/01/21 12:32:53;;;;;;;8.10;4.97;;;4.60;1.00;;;;;;5036345;28;20195;-80
2024/01/21 12:35:20;;;;;;;7.87;4.60;;;4.60;1.00;;;;;;5036934;28;20242;-79
2024/01/21 12:37:48;;;;;;;9.83;5.30;;;4.70;1.00;;;;;;5037479;28;20237;-80
2024/01/21 12:40:17;;;;;;;10.67;5.67;;;4.50;1.00;;;;;;5036146;28;20203;-79
2024/01/21 12:42:44;;;;;;;11.87;5.73;;;4.50;1.00;;;;;;5036689;28;20662;-79
2024/01/21 12:45:23;;;;;;;13.03;6.03;;;4.50;1.00;;;;;;5035639;28;20233;-79
2024/01/21 12:47:50;;;;;;;12.93;6.47;;;4.60;1.00;;;;;;5042890;28;20202;-80
2024/01/21 12:50:16;;;;;;;13.77;5.83;;;4.60;1.00;;;;;;5042191;28;20222;-79
2024/01/21 12:52:43;;;;;;;14.60;6.83;;;4.50;1.00;;;;;;5035709;28;20595;-80
2024/01/21 12:55:11;;;;;;;13.53;6.97;;;4.50;1.00;;;;;;5036099;28;20223;-78
2024/01/21 12:57:39;;;;;;;10.10;5.63;;;4.40;1.00;;;;;;5040107;28;20225;-81
2024/01/21 13:00:08;;;;;;;9.30;5.63;;;4.30;1.00;;;;;;5038485;28;20683;-79
2024/01/21 13:02:36;;;;;;;11.00;6.10;;;4.40;1.00;;;;;;5031454;28;20246;-80
2024/01/21 13:05:03;;;;;;;11.67;5.90;;;4.40;1.00;;;;;;5032621;28;20229;-79
2024/01/21 13:07:30;;;;;;;11.23;5.60;;;4.40;1.00;;;;;;5029090;28;20685;-79